Captiva — WDF3796 — position and weather

sailwx.info

Track history (hours):
 
Tides and Currents Weather Stations Pressure Air Temp Water Temp Dewpoint Dewpoint Depression Visibility Wind Speed Wind Dir Waves Ship Positions

Captiva

Owner: Callahan, Michael F, Swampscott, MA. More information available from US FCC via Universal Licensing System and Coast Guard Vessel Documentation Center.

Last reported at 2017-Mar-23 15:30 UTC. Time now 2017-Mar-26 13:06 UTC.
Position N 17°25' W 062°21'.

Length 15 m.

Type: Sailing vessel. MMSI: 367444090.

Date/timePositionNaut miles runAvg speedWind from/ knotsBaromVisibWave heightAir tempDewpointWater temp
2017-Mar-23 15:30N 17°25' W 062°21'8 8.4
2017-Mar-23 14:33N 17°19' W 062°15'8 8.3
2017-Mar-23 13:33N 17°14' W 062°08'8 8.3
2017-Mar-23 12:33N 17°08' W 062°02'9 8.4
2017-Mar-23 11:26N 17°02' W 061°55'7 7.9
2017-Mar-23 10:33N 16°60' W 061°48'2 1.8
2017-Mar-23 09:32N 17°01' W 061°46'0 0.0
2017-Mar-23 08:32N 17°01' W 061°46'0 0.0
2017-Mar-23 07:32N 17°01' W 061°46'0 0.0
2017-Mar-23 06:32N 17°01' W 061°46'0 0.0
2017-Mar-23 05:32N 17°01' W 061°46'0 0.0
2017-Mar-23 04:32N 17°01' W 061°46'0 0.0
2017-Mar-23 03:32N 17°01' W 061°46'0 0.0
2017-Mar-23 02:32N 17°01' W 061°46'0 0.0
2017-Mar-23 01:32N 17°01' W 061°46'0 0.0
2017-Mar-23 00:32N 17°01' W 061°46'0 0.0
2017-Mar-22 23:32N 17°01' W 061°46'0 0.0
2017-Mar-22 22:32N 17°01' W 061°46'0 0.0
2017-Mar-22 21:32N 17°01' W 061°46'0 0.0
2017-Mar-22 20:32N 17°01' W 061°46'0 0.0
2017-Mar-22 19:32N 17°01' W 061°46'0 0.0
2017-Mar-22 18:32N 17°01' W 061°46'0 0.0
2017-Mar-22 17:32N 17°01' W 061°46'0 0.0
2017-Mar-22 16:32N 17°01' W 061°46'0 0.0
2017-Mar-22 15:32N 17°01' W 061°46'0 0.0
2017-Mar-22 14:32N 17°01' W 061°46'0 0.0
2017-Mar-22 13:32N 17°01' W 061°46'0 0.0
2017-Mar-22 12:32N 17°01' W 061°46'0 0.0
2017-Mar-22 11:32N 17°01' W 061°46'0 0.0
2017-Mar-22 10:32N 17°01' W 061°46'0 0.0
2017-Mar-22 09:32N 17°01' W 061°46'0 0.0
2017-Mar-22 08:32N 17°01' W 061°46'0 0.0
2017-Mar-22 07:32N 17°01' W 061°46'0 0.0
2017-Mar-22 06:32N 17°01' W 061°46'0 0.0
2017-Mar-22 05:32N 17°01' W 061°46'0 0.0
2017-Mar-22 04:32N 17°01' W 061°46'0 0.0
2017-Mar-22 03:32N 17°01' W 061°46'0 0.0
2017-Mar-22 02:32N 17°01' W 061°46'0 0.0
2017-Mar-22 01:32N 17°01' W 061°46'0 0.0
2017-Mar-22 00:32N 17°01' W 061°46'0 0.0
2017-Mar-21 23:32N 17°01' W 061°46'0 0.0
2017-Mar-21 22:32N 17°01' W 061°46'0 0.0
2017-Mar-21 21:32N 17°01' W 061°46'0 0.0
2017-Mar-21 20:32N 17°01' W 061°46'2 1.6
2017-Mar-21 19:33N 16°59' W 061°47'8 7.9
2017-Mar-21 18:33N 16°51' W 061°47'8 7.6
2017-Mar-21 17:33N 16°44' W 061°48'8 7.8
2017-Mar-21 16:33N 16°36' W 061°48'8 8.1
2017-Mar-21 15:33N 16°28' W 061°48'  
Track history (hours):
 
Tides and Currents Weather Stations Pressure Air Temp Water Temp Dewpoint Dewpoint Depression Visibility Wind Speed Wind Dir Waves Ship Positions

Captiva

Owner: Callahan, Michael F, Swampscott, MA. More information available from US FCC via Universal Licensing System and Coast Guard Vessel Documentation Center.

Last reported at 2017-Mar-23 15:30 UTC. Time now 2017-Mar-26 13:06 UTC.
Position N 17°25' W 062°21'.

Length 15 m.

Type: Sailing vessel. MMSI: 367444090.

Date/timePositionNaut miles runAvg speedWind from/ knotsBaromVisibWave heightAir tempDewpointWater temp
2017-Mar-23 15:30N 17°25' W 062°21'8 8.4
2017-Mar-23 14:33N 17°19' W 062°15'8 8.3
2017-Mar-23 13:33N 17°14' W 062°08'8 8.3
2017-Mar-23 12:33N 17°08' W 062°02'9 8.4
2017-Mar-23 11:26N 17°02' W 061°55'7 7.9
2017-Mar-23 10:33N 16°60' W 061°48'2 1.8
2017-Mar-23 09:32N 17°01' W 061°46'0 0.0
2017-Mar-23 08:32N 17°01' W 061°46'0 0.0
2017-Mar-23 07:32N 17°01' W 061°46'0 0.0
2017-Mar-23 06:32N 17°01' W 061°46'0 0.0
2017-Mar-23 05:32N 17°01' W 061°46'0 0.0
2017-Mar-23 04:32N 17°01' W 061°46'0 0.0
2017-Mar-23 03:32N 17°01' W 061°46'0 0.0
2017-Mar-23 02:32N 17°01' W 061°46'0 0.0
2017-Mar-23 01:32N 17°01' W 061°46'0 0.0
2017-Mar-23 00:32N 17°01' W 061°46'0 0.0
2017-Mar-22 23:32N 17°01' W 061°46'0 0.0
2017-Mar-22 22:32N 17°01' W 061°46'0 0.0
2017-Mar-22 21:32N 17°01' W 061°46'0 0.0
2017-Mar-22 20:32N 17°01' W 061°46'0 0.0
2017-Mar-22 19:32N 17°01' W 061°46'0 0.0
2017-Mar-22 18:32N 17°01' W 061°46'0 0.0
2017-Mar-22 17:32N 17°01' W 061°46'0 0.0
2017-Mar-22 16:32N 17°01' W 061°46'0 0.0
2017-Mar-22 15:32N 17°01' W 061°46'0 0.0
2017-Mar-22 14:32N 17°01' W 061°46'0 0.0
2017-Mar-22 13:32N 17°01' W 061°46'0 0.0
2017-Mar-22 12:32N 17°01' W 061°46'0 0.0
2017-Mar-22 11:32N 17°01' W 061°46'0 0.0
2017-Mar-22 10:32N 17°01' W 061°46'0 0.0
2017-Mar-22 09:32N 17°01' W 061°46'0 0.0
2017-Mar-22 08:32N 17°01' W 061°46'0 0.0
2017-Mar-22 07:32N 17°01' W 061°46'0 0.0
2017-Mar-22 06:32N 17°01' W 061°46'0 0.0
2017-Mar-22 05:32N 17°01' W 061°46'0 0.0
2017-Mar-22 04:32N 17°01' W 061°46'0 0.0
2017-Mar-22 03:32N 17°01' W 061°46'0 0.0
2017-Mar-22 02:32N 17°01' W 061°46'0 0.0
2017-Mar-22 01:32N 17°01' W 061°46'0 0.0
2017-Mar-22 00:32N 17°01' W 061°46'0 0.0
2017-Mar-21 23:32N 17°01' W 061°46'0 0.0
2017-Mar-21 22:32N 17°01' W 061°46'0 0.0
2017-Mar-21 21:32N 17°01' W 061°46'0 0.0
2017-Mar-21 20:32N 17°01' W 061°46'2 1.6
2017-Mar-21 19:33N 16°59' W 061°47'8 7.9
2017-Mar-21 18:33N 16°51' W 061°47'8 7.6
2017-Mar-21 17:33N 16°44' W 061°48'8 7.8
2017-Mar-21 16:33N 16°36' W 061°48'8 8.1
2017-Mar-21 15:33N 16°28' W 061°48'  

Dump ship's entire track history